sensor_id;sensor_type;location;lat;lon;timestamp;P1;durP1;ratioP1;P2;durP2;ratioP2
10967;SDS011;5536;49.602;10.980;2023-06-19T00:01:47;4.63;;;3.53;;
10967;SDS011;5536;49.602;10.980;2023-06-19T00:04:15;3.92;;;3.45;;
10967;SDS011;5536;49.602;10.980;2023-06-19T00:06:42;5.93;;;4.10;;
10967;SDS011;5536;49.602;10.980;2023-06-19T00:09:09;6.03;;;3.80;;
10967;SDS011;5536;49.602;10.980;2023-06-19T00:11:37;4.50;;;3.42;;
10967;SDS011;5536;49.602;10.980;2023-06-19T00:14:04;3.47;;;3.22;;
10967;SDS011;5536;49.602;10.980;2023-06-19T00:16:31;4.00;;;3.60;;
10967;SDS011;5536;49.602;10.980;2023-06-19T00:18:58;3.92;;;3.45;;
10967;SDS011;5536;49.602;10.980;2023-06-19T00:21:28;4.05;;;3.58;;
10967;SDS011;5536;49.602;10.980;2023-06-19T00:23:55;3.00;;;2.75;;
10967;SDS011;5536;49.602;10.980;2023-06-19T00:26:22;3.55;;;3.25;;
10967;SDS011;5536;49.602;10.980;2023-06-19T00:28:51;12.93;;;3.53;;
10967;SDS011;5536;49.602;10.980;2023-06-19T00:31:18;4.05;;;3.40;;
10967;SDS011;5536;49.602;10.980;2023-06-19T00:33:46;4.00;;;3.60;;
10967;SDS011;5536;49.602;10.980;2023-06-19T00:36:14;3.88;;;3.58;;
10967;SDS011;5536;49.602;10.980;2023-06-19T00:38:45;3.95;;;3.63;;
10967;SDS011;5536;49.602;10.980;2023-06-19T00:41:13;4.15;;;3.38;;
10967;SDS011;5536;49.602;10.980;2023-06-19T00:43:41;3.63;;;3.33;;
10967;SDS011;5536;49.602;10.980;2023-06-19T00:46:09;3.05;;;2.85;;
10967;SDS011;5536;49.602;10.980;2023-06-19T00:48:37;3.55;;;3.25;;
10967;SDS011;5536;49.602;10.980;2023-06-19T00:51:05;3.65;;;3.08;;
10967;SDS011;5536;49.602;10.980;2023-06-19T00:53:32;3.22;;;3.00;;
10967;SDS011;5536;49.602;10.980;2023-06-19T00:56:00;3.88;;;3.10;;
10967;SDS011;5536;49.602;10.980;2023-06-19T00:58:28;5.50;;;4.13;;
10967;SDS011;5536;49.602;10.980;2023-06-19T01:00:55;5.95;;;3.13;;
10967;SDS011;5536;49.602;10.980;2023-06-19T01:03:24;4.35;;;3.85;;
10967;SDS011;5536;49.602;10.980;2023-06-19T01:05:51;4.60;;;3.72;;
10967;SDS011;5536;49.602;10.980;2023-06-19T01:08:26;4.28;;;3.53;;
10967;SDS011;5536;49.602;10.980;2023-06-19T01:11:16;3.50;;;3.15;;
10967;SDS011;5536;49.602;10.980;2023-06-19T01:13:47;3.72;;;3.33;;
10967;SDS011;5536;49.602;10.980;2023-06-19T01:16:21;3.70;;;3.38;;
10967;SDS011;5536;49.602;10.980;2023-06-19T01:18:50;4.25;;;3.53;;
10967;SDS011;5536;49.602;10.980;2023-06-19T01:21:18;4.05;;;3.33;;
10967;SDS011;5536;49.602;10.980;2023-06-19T01:23:47;4.70;;;3.70;;
10967;SDS011;5536;49.602;10.980;2023-06-19T01:26:16;3.53;;;3.22;;
10967;SDS011;5536;49.602;10.980;2023-06-19T01:28:43;4.03;;;3.63;;
10967;SDS011;5536;49.602;10.980;2023-06-19T01:31:13;4.13;;;2.78;;
10967;SDS011;5536;49.602;10.980;2023-06-19T01:33:44;4.47;;;3.70;;
10967;SDS011;5536;49.602;10.980;2023-06-19T01:36:12;3.63;;;3.33;;
10967;SDS011;5536;49.602;10.980;2023-06-19T01:38:41;4.50;;;3.90;;
10967;SDS011;5536;49.602;10.980;2023-06-19T01:41:11;4.13;;;3.28;;
10967;SDS011;5536;49.602;10.980;2023-06-19T01:43:40;5.53;;;4.13;;
10967;SDS011;5536;49.602;10.980;2023-06-19T01:46:08;5.85;;;3.78;;
10967;SDS011;5536;49.602;10.980;2023-06-19T01:48:35;4.20;;;3.80;;
10967;SDS011;5536;49.602;10.980;2023-06-19T01:51:04;3.45;;;3.15;;
10967;SDS011;5536;49.602;10.980;2023-06-19T01:53:31;5.65;;;3.72;;
10967;SDS011;5536;49.602;10.980;2023-06-19T01:55:58;2.83;;;2.63;;
10967;SDS011;5536;49.602;10.980;2023-06-19T01:58:27;3.85;;;3.30;;
10967;SDS011;5536;49.602;10.980;2023-06-19T02:00:54;5.03;;;3.83;;
10967;SDS011;5536;49.602;10.980;2023-06-19T02:03:21;4.15;;;3.33;;
10967;SDS011;5536;49.602;10.980;2023-06-19T02:05:48;5.93;;;3.95;;
10967;SDS011;5536;49.602;10.980;2023-06-19T02:08:15;3.45;;;3.15;;
10967;SDS011;5536;49.602;10.980;2023-06-19T02:10:42;3.80;;;3.50;;
10967;SDS011;5536;49.602;10.980;2023-06-19T02:13:09;4.25;;;3.60;;
10967;SDS011;5536;49.602;10.980;2023-06-19T02:15:38;4.00;;;3.63;;
10967;SDS011;5536;49.602;10.980;2023-06-19T02:18:04;4.70;;;3.70;;
10967;SDS011;5536;49.602;10.980;2023-06-19T02:20:32;4.22;;;3.70;;
10967;SDS011;5536;49.602;10.980;2023-06-19T02:22:59;4.70;;;3.53;;
10967;SDS011;5536;49.602;10.980;2023-06-19T02:25:26;4.00;;;3.63;;
10967;SDS011;5536;49.602;10.980;2023-06-19T02:27:53;4.90;;;3.50;;
10967;SDS011;5536;49.602;10.980;2023-06-19T02:30:20;15.77;;;3.55;;
10967;SDS011;5536;49.602;10.980;2023-06-19T02:32:49;5.00;;;4.03;;
10967;SDS011;5536;49.602;10.980;2023-06-19T02:35:16;3.67;;;3.38;;
10967;SDS011;5536;49.602;10.980;2023-06-19T02:37:43;4.10;;;3.17;;
10967;SDS011;5536;49.602;10.980;2023-06-19T02:40:11;3.83;;;3.53;;
10967;SDS011;5536;49.602;10.980;2023-06-19T02:42:39;4.25;;;3.45;;
10967;SDS011;5536;49.602;10.980;2023-06-19T02:45:07;3.60;;;3.33;;
10967;SDS011;5536;49.602;10.980;2023-06-19T02:47:34;3.90;;;3.60;;
10967;SDS011;5536;49.602;10.980;2023-06-19T02:50:04;3.88;;;3.13;;
10967;SDS011;5536;49.602;10.980;2023-06-19T02:52:32;4.30;;;3.53;;
10967;SDS011;5536;49.602;10.980;2023-06-19T02:54:59;3.95;;;3.35;;
10967;SDS011;5536;49.602;10.980;2023-06-19T02:57:26;4.22;;;3.75;;
10967;SDS011;5536;49.602;10.980;2023-06-19T02:59:53;4.65;;;3.95;;
10967;SDS011;5536;49.602;10.980;2023-06-19T03:02:20;5.03;;;3.38;;
10967;SDS011;5536;49.602;10.980;2023-06-19T03:04:47;3.85;;;3.50;;
10967;SDS011;5536;49.602;10.980;2023-06-19T03:07:16;3.78;;;3.47;;
10967;SDS011;5536;49.602;10.980;2023-06-19T03:09:43;4.40;;;4.00;;
10967;SDS011;5536;49.602;10.980;2023-06-19T03:12:10;4.38;;;3.97;;
10967;SDS011;5536;49.602;10.980;2023-06-19T03:14:38;3.60;;;3.30;;
10967;SDS011;5536;49.602;10.980;2023-06-19T03:17:05;3.50;;;2.95;;
10967;SDS011;5536;49.602;10.980;2023-06-19T03:19:32;10.43;;;4.80;;
10967;SDS011;5536;49.602;10.980;2023-06-19T03:21:59;6.28;;;4.32;;
10967;SDS011;5536;49.602;10.980;2023-06-19T03:24:27;4.80;;;3.60;;
10967;SDS011;5536;49.602;10.980;2023-06-19T03:26:54;4.50;;;3.35;;
10967;SDS011;5536;49.602;10.980;2023-06-19T03:29:21;4.10;;;3.70;;
10967;SDS011;5536;49.602;10.980;2023-06-19T03:31:48;3.80;;;3.38;;
10967;SDS011;5536;49.602;10.980;2023-06-19T03:34:16;3.67;;;3.38;;
10967;SDS011;5536;49.602;10.980;2023-06-19T03:36:43;5.53;;;3.95;;
10967;SDS011;5536;49.602;10.980;2023-06-19T03:39:10;6.13;;;3.63;;
10967;SDS011;5536;49.602;10.980;2023-06-19T03:41:38;4.47;;;3.40;;
10967;SDS011;5536;49.602;10.980;2023-06-19T03:44:05;4.10;;;3.70;;
10967;SDS011;5536;49.602;10.980;2023-06-19T03:46:32;4.60;;;3.80;;
10967;SDS011;5536;49.602;10.980;2023-06-19T03:48:59;4.10;;;3.78;;
10967;SDS011;5536;49.602;10.980;2023-06-19T03:51:27;3.42;;;3.13;;
10967;SDS011;5536;49.602;10.980;2023-06-19T03:53:54;4.45;;;3.60;;
10967;SDS011;5536;49.602;10.980;2023-06-19T03:56:21;4.18;;;3.78;;
10967;SDS011;5536;49.602;10.980;2023-06-19T03:58:50;4.55;;;3.60;;
10967;SDS011;5536;49.602;10.980;2023-06-19T04:01:17;3.67;;;2.97;;
10967;SDS011;5536;49.602;10.980;2023-06-19T04:03:44;5.63;;;3.47;;
10967;SDS011;5536;49.602;10.980;2023-06-19T04:06:11;4.53;;;3.67;;
10967;SDS011;5536;49.602;10.980;2023-06-19T04:08:38;5.03;;;4.15;;
10967;SDS011;5536;49.602;10.980;2023-06-19T04:11:05;4.07;;;3.50;;
10967;SDS011;5536;49.602;10.980;2023-06-19T04:13:32;5.43;;;3.55;;
10967;SDS011;5536;49.602;10.980;2023-06-19T04:16:00;5.60;;;4.20;;
10967;SDS011;5536;49.602;10.980;2023-06-19T04:18:29;4.97;;;4.07;;
10967;SDS011;5536;49.602;10.980;2023-06-19T04:20:56;4.18;;;3.70;;
10967;SDS011;5536;49.602;10.980;2023-06-19T04:23:23;3.75;;;3.38;;
10967;SDS011;5536;49.602;10.980;2023-06-19T04:25:50;4.68;;;3.53;;
10967;SDS011;5536;49.602;10.980;2023-06-19T04:28:17;3.45;;;3.15;;
10967;SDS011;5536;49.602;10.980;2023-06-19T04:30:44;3.45;;;3.15;;
10967;SDS011;5536;49.602;10.980;2023-06-19T04:33:12;3.50;;;3.20;;
10967;SDS011;5536;49.602;10.980;2023-06-19T04:35:39;3.42;;;3.13;;
10967;SDS011;5536;49.602;10.980;2023-06-19T04:38:06;4.28;;;3.45;;
10967;SDS011;5536;49.602;10.980;2023-06-19T04:40:34;5.03;;;3.80;;
10967;SDS011;5536;49.602;10.980;2023-06-19T04:43:01;3.70;;;3.40;;
10967;SDS011;5536;49.602;10.980;2023-06-19T04:45:30;4.32;;;3.83;;
10967;SDS011;5536;49.602;10.980;2023-06-19T04:47:58;3.65;;;3.08;;
10967;SDS011;5536;49.602;10.980;2023-06-19T04:50:29;4.80;;;3.85;;
10967;SDS011;5536;49.602;10.980;2023-06-19T04:52:56;4.55;;;3.58;;
10967;SDS011;5536;49.602;10.980;2023-06-19T04:55:24;4.22;;;3.35;;
10967;SDS011;5536;49.602;10.980;2023-06-19T04:57:51;5.40;;;4.03;;
10967;SDS011;5536;49.602;10.980;2023-06-19T05:00:19;3.60;;;3.25;;
10967;SDS011;5536;49.602;10.980;2023-06-19T05:02:48;4.47;;;3.70;;
10967;SDS011;5536;49.602;10.980;2023-06-19T05:05:15;4.22;;;3.33;;
10967;SDS011;5536;49.602;10.980;2023-06-19T05:07:44;5.22;;;3.28;;
10967;SDS011;5536;49.602;10.980;2023-06-19T05:10:11;3.97;;;3.58;;
10967;SDS011;5536;49.602;10.980;2023-06-19T05:12:39;7.22;;;3.45;;
10967;SDS011;5536;49.602;10.980;2023-06-19T05:15:07;6.63;;;4.00;;
10967;SDS011;5536;49.602;10.980;2023-06-19T05:17:35;3.60;;;3.28;;
10967;SDS011;5536;49.602;10.980;2023-06-19T05:20:04;10.35;;;3.67;;
10967;SDS011;5536;49.602;10.980;2023-06-19T05:22:32;3.83;;;3.42;;
10967;SDS011;5536;49.602;10.980;2023-06-19T05:25:01;6.57;;;3.15;;
10967;SDS011;5536;49.602;10.980;2023-06-19T05:27:28;3.83;;;3.47;;
10967;SDS011;5536;49.602;10.980;2023-06-19T05:29:56;3.30;;;2.88;;
10967;SDS011;5536;49.602;10.980;2023-06-19T05:32:23;6.05;;;4.07;;
10967;SDS011;5536;49.602;10.980;2023-06-19T05:34:50;4.13;;;3.65;;
10967;SDS011;5536;49.602;10.980;2023-06-19T05:37:17;5.30;;;3.53;;
10967;SDS011;5536;49.602;10.980;2023-06-19T05:39:44;5.53;;;3.70;;
10967;SDS011;5536;49.602;10.980;2023-06-19T05:42:12;11.63;;;3.65;;
10967;SDS011;5536;49.602;10.980;2023-06-19T05:44:39;3.15;;;2.95;;
10967;SDS011;5536;49.602;10.980;2023-06-19T05:47:06;4.43;;;3.80;;
10967;SDS011;5536;49.602;10.980;2023-06-19T05:49:33;7.32;;;3.40;;
10967;SDS011;5536;49.602;10.980;2023-06-19T05:52:00;4.32;;;3.92;;
10967;SDS011;5536;49.602;10.980;2023-06-19T05:54:27;3.40;;;3.10;;
10967;SDS011;5536;49.602;10.980;2023-06-19T05:56:54;5.13;;;4.28;;
10967;SDS011;5536;49.602;10.980;2023-06-19T05:59:23;4.80;;;3.95;;
10967;SDS011;5536;49.602;10.980;2023-06-19T06:01:50;3.70;;;3.40;;
10967;SDS011;5536;49.602;10.980;2023-06-19T06:04:18;5.85;;;3.97;;
10967;SDS011;5536;49.602;10.980;2023-06-19T06:06:47;4.57;;;3.05;;
10967;SDS011;5536;49.602;10.980;2023-06-19T06:09:14;9.23;;;3.47;;
10967;SDS011;5536;49.602;10.980;2023-06-19T06:11:41;3.65;;;3.20;;
10967;SDS011;5536;49.602;10.980;2023-06-19T06:14:08;3.22;;;2.92;;
10967;SDS011;5536;49.602;10.980;2023-06-19T06:16:36;4.35;;;3.65;;
10967;SDS011;5536;49.602;10.980;2023-06-19T06:19:03;4.68;;;3.78;;
10967;SDS011;5536;49.602;10.980;2023-06-19T06:21:30;7.60;;;3.72;;
10967;SDS011;5536;49.602;10.980;2023-06-19T06:24:00;2.75;;;2.55;;
10967;SDS011;5536;49.602;10.980;2023-06-19T06:26:27;3.00;;;2.80;;
10967;SDS011;5536;49.602;10.980;2023-06-19T06:28:54;3.33;;;3.03;;
10967;SDS011;5536;49.602;10.980;2023-06-19T06:31:22;3.88;;;2.83;;
10967;SDS011;5536;49.602;10.980;2023-06-19T06:33:50;2.90;;;2.70;;
10967;SDS011;5536;49.602;10.980;2023-06-19T06:36:17;4.47;;;2.70;;
10967;SDS011;5536;49.602;10.980;2023-06-19T06:38:44;3.70;;;1.90;;
10967;SDS011;5536;49.602;10.980;2023-06-19T06:41:11;2.85;;;2.60;;
10967;SDS011;5536;49.602;10.980;2023-06-19T06:43:40;2.92;;;2.72;;
10967;SDS011;5536;49.602;10.980;2023-06-19T06:46:08;2.58;;;2.25;;
10967;SDS011;5536;49.602;10.980;2023-06-19T06:48:35;6.30;;;2.72;;
10967;SDS011;5536;49.602;10.980;2023-06-19T06:51:04;3.33;;;2.83;;
10967;SDS011;5536;49.602;10.980;2023-06-19T06:53:31;3.50;;;2.28;;
10967;SDS011;5536;49.602;10.980;2023-06-19T06:55:58;2.65;;;2.45;;
10967;SDS011;5536;49.602;10.980;2023-06-19T06:58:26;2.38;;;2.17;;
10967;SDS011;5536;49.602;10.980;2023-06-19T07:00:53;2.25;;;1.98;;
10967;SDS011;5536;49.602;10.980;2023-06-19T07:03:20;4.03;;;2.42;;
10967;SDS011;5536;49.602;10.980;2023-06-19T07:05:47;2.10;;;2.00;;
10967;SDS011;5536;49.602;10.980;2023-06-19T07:08:16;2.72;;;2.35;;
10967;SDS011;5536;49.602;10.980;2023-06-19T07:10:43;2.72;;;2.25;;
10967;SDS011;5536;49.602;10.980;2023-06-19T07:13:10;2.58;;;2.08;;
10967;SDS011;5536;49.602;10.980;2023-06-19T07:15:38;2.03;;;1.92;;
10967;SDS011;5536;49.602;10.980;2023-06-19T07:18:05;2.63;;;1.90;;
10967;SDS011;5536;49.602;10.980;2023-06-19T07:20:32;2.38;;;2.00;;
10967;SDS011;5536;49.602;10.980;2023-06-19T07:22:59;2.92;;;2.30;;
10967;SDS011;5536;49.602;10.980;2023-06-19T07:25:30;2.10;;;1.80;;
10967;SDS011;5536;49.602;10.980;2023-06-19T07:27:59;2.10;;;1.92;;
10967;SDS011;5536;49.602;10.980;2023-06-19T07:30:26;2.45;;;2.25;;
10967;SDS011;5536;49.602;10.980;2023-06-19T07:32:53;3.15;;;2.30;;
10967;SDS011;5536;49.602;10.980;2023-06-19T07:35:20;2.03;;;1.80;;
10967;SDS011;5536;49.602;10.980;2023-06-19T07:37:47;1.83;;;1.73;;
10967;SDS011;5536;49.602;10.980;2023-06-19T07:40:14;1.73;;;1.55;;
10967;SDS011;5536;49.602;10.980;2023-06-19T07:42:43;1.90;;;1.80;;
10967;SDS011;5536;49.602;10.980;2023-06-19T07:45:10;1.63;;;1.42;;
10967;SDS011;5536;49.602;10.980;2023-06-19T07:47:38;1.70;;;1.60;;
10967;SDS011;5536;49.602;10.980;2023-06-19T07:50:05;1.50;;;1.40;;
10967;SDS011;5536;49.602;10.980;2023-06-19T07:52:33;1.70;;;1.60;;
10967;SDS011;5536;49.602;10.980;2023-06-19T07:55:00;1.60;;;1.50;;
10967;SDS011;5536;49.602;10.980;2023-06-19T07:57:27;6.80;;;1.83;;
10967;SDS011;5536;49.602;10.980;2023-06-19T07:59:56;1.67;;;1.58;;
10967;SDS011;5536;49.602;10.980;2023-06-19T08:02:23;1.85;;;1.75;;
10967;SDS011;5536;49.602;10.980;2023-06-19T08:04:50;1.45;;;1.38;;
10967;SDS011;5536;49.602;10.980;2023-06-19T08:07:17;1.35;;;1.30;;
10967;SDS011;5536;49.602;10.980;2023-06-19T08:09:44;1.58;;;1.38;;
10967;SDS011;5536;49.602;10.980;2023-06-19T08:12:11;2.63;;;1.90;;
10967;SDS011;5536;49.602;10.980;2023-06-19T08:14:38;2.03;;;1.92;;
10967;SDS011;5536;49.602;10.980;2023-06-19T08:17:06;6.43;;;2.13;;
10967;SDS011;5536;49.602;10.980;2023-06-19T08:19:33;1.80;;;1.70;;
10967;SDS011;5536;49.602;10.980;2023-06-19T08:22:00;1.50;;;1.40;;
10967;SDS011;5536;49.602;10.980;2023-06-19T08:24:28;1.70;;;1.60;;
10967;SDS011;5536;49.602;10.980;2023-06-19T08:26:55;1.95;;;1.80;;
10967;SDS011;5536;49.602;10.980;2023-06-19T08:29:22;1.63;;;1.30;;
10967;SDS011;5536;49.602;10.980;2023-06-19T08:31:49;1.42;;;1.33;;
10967;SDS011;5536;49.602;10.980;2023-06-19T08:34:18;1.17;;;1.17;;
10967;SDS011;5536;49.602;10.980;2023-06-19T08:36:45;1.25;;;1.25;;
10967;SDS011;5536;49.602;10.980;2023-06-19T08:39:12;1.15;;;1.15;;
10967;SDS011;5536;49.602;10.980;2023-06-19T08:41:39;1.63;;;1.52;;
10967;SDS011;5536;49.602;10.980;2023-06-19T08:44:07;1.52;;;1.42;;
10967;SDS011;5536;49.602;10.980;2023-06-19T08:46:35;2.00;;;1.90;;
10967;SDS011;5536;49.602;10.980;2023-06-19T08:49:02;1.52;;;1.40;;
10967;SDS011;5536;49.602;10.980;2023-06-19T08:51:32;1.50;;;1.40;;
10967;SDS011;5536;49.602;10.980;2023-06-19T08:54:00;1.58;;;1.25;;
10967;SDS011;5536;49.602;10.980;2023-06-19T08:56:29;1.35;;;1.30;;
10967;SDS011;5536;49.602;10.980;2023-06-19T08:59:07;2.08;;;1.17;;
10967;SDS011;5536;49.602;10.980;2023-06-19T09:01:35;1.58;;;1.48;;
10967;SDS011;5536;49.602;10.980;2023-06-19T09:04:07;1.60;;;1.50;;
10967;SDS011;5536;49.602;10.980;2023-06-19T09:06:37;1.63;;;1.52;;
10967;SDS011;5536;49.602;10.980;2023-06-19T09:09:13;6.32;;;1.38;;
10967;SDS011;5536;49.602;10.980;2023-06-19T09:11:40;1.80;;;1.70;;
10967;SDS011;5536;49.602;10.980;2023-06-19T09:14:09;1.60;;;1.50;;
10967;SDS011;5536;49.602;10.980;2023-06-19T09:16:37;1.77;;;1.67;;
10967;SDS011;5536;49.602;10.980;2023-06-19T09:19:05;1.30;;;1.30;;
10967;SDS011;5536;49.602;10.980;2023-06-19T09:21:35;1.85;;;1.38;;
10967;SDS011;5536;49.602;10.980;2023-06-19T09:24:04;1.65;;;1.55;;
10967;SDS011;5536;49.602;10.980;2023-06-19T09:26:32;1.90;;;1.58;;
10967;SDS011;5536;49.602;10.980;2023-06-19T09:29:09;1.75;;;1.63;;
10967;SDS011;5536;49.602;10.980;2023-06-19T09:31:38;1.67;;;1.42;;
10967;SDS011;5536;49.602;10.980;2023-06-19T09:34:06;1.55;;;1.45;;
10967;SDS011;5536;49.602;10.980;2023-06-19T09:36:34;1.65;;;1.50;;
10967;SDS011;5536;49.602;10.980;2023-06-19T09:39:03;1.52;;;1.42;;
10967;SDS011;5536;49.602;10.980;2023-06-19T09:41:30;1.15;;;1.15;;
10967;SDS011;5536;49.602;10.980;2023-06-19T09:43:58;2.67;;;1.50;;
10967;SDS011;5536;49.602;10.980;2023-06-19T09:46:29;1.40;;;1.30;;
10967;SDS011;5536;49.602;10.980;2023-06-19T09:48:58;2.83;;;1.52;;
10967;SDS011;5536;49.602;10.980;2023-06-19T09:51:30;3.08;;;1.80;;
10967;SDS011;5536;49.602;10.980;2023-06-19T09:54:00;1.60;;;1.42;;
10967;SDS011;5536;49.602;10.980;2023-06-19T09:56:29;1.40;;;1.30;;
10967;SDS011;5536;49.602;10.980;2023-06-19T09:58:57;1.20;;;1.20;;
10967;SDS011;5536;49.602;10.980;2023-06-19T10:01:26;1.30;;;1.25;;
10967;SDS011;5536;49.602;10.980;2023-06-19T10:04:04;9.68;;;1.67;;
10967;SDS011;5536;49.602;10.980;2023-06-19T10:06:32;1.10;;;1.10;;
10967;SDS011;5536;49.602;10.980;2023-06-19T10:09:07;1.08;;;1.08;;
10967;SDS011;5536;49.602;10.980;2023-06-19T10:11:45;1.30;;;1.30;;
10967;SDS011;5536;49.602;10.980;2023-06-19T10:14:17;1.42;;;1.33;;
10967;SDS011;5536;49.602;10.980;2023-06-19T10:16:44;3.15;;;1.30;;
10967;SDS011;5536;49.602;10.980;2023-06-19T10:19:13;1.52;;;1.42;;
10967;SDS011;5536;49.602;10.980;2023-06-19T10:21:45;1.70;;;1.33;;
10967;SDS011;5536;49.602;10.980;2023-06-19T10:24:15;1.40;;;1.37;;
10967;SDS011;5536;49.602;10.980;2023-06-19T10:26:54;1.20;;;1.20;;
10967;SDS011;5536;49.602;10.980;2023-06-19T10:29:23;1.50;;;1.40;;
10967;SDS011;5536;49.602;10.980;2023-06-19T10:31:52;1.40;;;1.30;;
10967;SDS011;5536;49.602;10.980;2023-06-19T10:34:19;1.55;;;1.45;;
10967;SDS011;5536;49.602;10.980;2023-06-19T10:36:46;1.48;;;1.42;;
10967;SDS011;5536;49.602;10.980;2023-06-19T10:39:15;2.03;;;1.50;;
10967;SDS011;5536;49.602;10.980;2023-06-19T10:41:41;1.30;;;1.27;;
10967;SDS011;5536;49.602;10.980;2023-06-19T10:44:08;2.30;;;2.10;;
10967;SDS011;5536;49.602;10.980;2023-06-19T10:46:37;1.17;;;1.17;;
10967;SDS011;5536;49.602;10.980;2023-06-19T10:49:05;1.65;;;1.55;;
10967;SDS011;5536;49.602;10.980;2023-06-19T10:51:35;1.85;;;1.50;;
10967;SDS011;5536;49.602;10.980;2023-06-19T10:54:03;1.40;;;1.30;;
10967;SDS011;5536;49.602;10.980;2023-06-19T10:56:32;1.48;;;1.38;;
10967;SDS011;5536;49.602;10.980;2023-06-19T10:59:00;1.60;;;1.50;;
10967;SDS011;5536;49.602;10.980;2023-06-19T11:01:32;1.33;;;1.23;;
10967;SDS011;5536;49.602;10.980;2023-06-19T11:04:01;1.30;;;1.20;;
10967;SDS011;5536;49.602;10.980;2023-06-19T11:06:30;1.60;;;1.50;;
10967;SDS011;5536;49.602;10.980;2023-06-19T11:08:58;1.55;;;1.45;;
10967;SDS011;5536;49.602;10.980;2023-06-19T11:11:35;2.78;;;2.13;;
10967;SDS011;5536;49.602;10.980;2023-06-19T11:14:03;2.10;;;1.77;;
10967;SDS011;5536;49.602;10.980;2023-06-19T11:16:31;2.88;;;2.67;;
10967;SDS011;5536;49.602;10.980;2023-06-19T11:19:00;2.00;;;1.90;;
10967;SDS011;5536;49.602;10.980;2023-06-19T11:21:31;1.83;;;1.73;;
10967;SDS011;5536;49.602;10.980;2023-06-19T11:24:00;3.13;;;2.67;;
10967;SDS011;5536;49.602;10.980;2023-06-19T11:26:27;2.10;;;1.90;;
10967;SDS011;5536;49.602;10.980;2023-06-19T11:28:55;1.67;;;1.58;;
10967;SDS011;5536;49.602;10.980;2023-06-19T11:31:24;2.08;;;1.50;;
10967;SDS011;5536;49.602;10.980;2023-06-19T11:33:56;1.63;;;1.52;;
10967;SDS011;5536;49.602;10.980;2023-06-19T11:36:24;7.60;;;5.63;;
10967;SDS011;5536;49.602;10.980;2023-06-19T11:38:51;2.47;;;2.25;;
10967;SDS011;5536;49.602;10.980;2023-06-19T11:41:24;1.10;;;1.10;;
10967;SDS011;5536;49.602;10.980;2023-06-19T11:43:59;1.95;;;1.45;;
10967;SDS011;5536;49.602;10.980;2023-06-19T11:46:29;1.73;;;1.63;;
10967;SDS011;5536;49.602;10.980;2023-06-19T11:49:06;1.52;;;1.42;;
10967;SDS011;5536;49.602;10.980;2023-06-19T11:51:35;1.95;;;1.75;;
10967;SDS011;5536;49.602;10.980;2023-06-19T11:54:02;1.73;;;1.63;;
10967;SDS011;5536;49.602;10.980;2023-06-19T11:56:31;1.70;;;1.63;;
10967;SDS011;5536;49.602;10.980;2023-06-19T11:59:00;1.65;;;1.55;;
10967;SDS011;5536;49.602;10.980;2023-06-19T12:01:28;1.30;;;1.30;;
10967;SDS011;5536;49.602;10.980;2023-06-19T12:03:55;1.50;;;1.40;;
10967;SDS011;5536;49.602;10.980;2023-06-19T12:06:22;1.85;;;1.75;;
10967;SDS011;5536;49.602;10.980;2023-06-19T12:08:49;2.05;;;1.85;;
10967;SDS011;5536;49.602;10.980;2023-06-19T12:11:16;1.45;;;1.30;;
10967;SDS011;5536;49.602;10.980;2023-06-19T12:13:43;2.05;;;1.52;;
10967;SDS011;5536;49.602;10.980;2023-06-19T12:16:11;1.10;;;1.10;;
10967;SDS011;5536;49.602;10.980;2023-06-19T12:18:39;1.45;;;1.40;;
10967;SDS011;5536;49.602;10.980;2023-06-19T12:21:06;1.23;;;1.20;;
10967;SDS011;5536;49.602;10.980;2023-06-19T12:23:33;1.75;;;1.65;;
10967;SDS011;5536;49.602;10.980;2023-06-19T12:26:00;1.00;;;1.00;;
10967;SDS011;5536;49.602;10.980;2023-06-19T12:28:27;1.50;;;1.40;;
10967;SDS011;5536;49.602;10.980;2023-06-19T12:30:55;1.83;;;1.73;;
10967;SDS011;5536;49.602;10.980;2023-06-19T12:33:24;1.17;;;1.13;;
10967;SDS011;5536;49.602;10.980;2023-06-19T12:35:58;1.08;;;1.08;;
10967;SDS011;5536;49.602;10.980;2023-06-19T12:38:25;5.22;;;1.58;;
10967;SDS011;5536;49.602;10.980;2023-06-19T12:40:52;1.58;;;1.45;;
10967;SDS011;5536;49.602;10.980;2023-06-19T12:43:19;1.20;;;1.20;;
10967;SDS011;5536;49.602;10.980;2023-06-19T12:45:46;1.13;;;1.13;;
10967;SDS011;5536;49.602;10.980;2023-06-19T12:48:13;1.60;;;1.50;;
10967;SDS011;5536;49.602;10.980;2023-06-19T12:50:41;1.50;;;1.40;;
10967;SDS011;5536;49.602;10.980;2023-06-19T12:53:08;1.20;;;1.20;;
10967;SDS011;5536;49.602;10.980;2023-06-19T12:55:36;0.98;;;0.98;;
10967;SDS011;5536;49.602;10.980;2023-06-19T12:58:03;1.13;;;1.13;;
10967;SDS011;5536;49.602;10.980;2023-06-19T13:00:30;1.20;;;1.20;;
10967;SDS011;5536;49.602;10.980;2023-06-19T13:02:57;1.52;;;1.42;;
10967;SDS011;5536;49.602;10.980;2023-06-19T13:05:24;3.42;;;1.40;;
10967;SDS011;5536;49.602;10.980;2023-06-19T13:07:53;1.20;;;1.20;;
10967;SDS011;5536;49.602;10.980;2023-06-19T13:10:20;1.20;;;1.20;;
10967;SDS011;5536;49.602;10.980;2023-06-19T13:12:47;2.97;;;1.25;;
10967;SDS011;5536;49.602;10.980;2023-06-19T13:15:14;1.00;;;1.00;;
10967;SDS011;5536;49.602;10.980;2023-06-19T13:17:41;1.55;;;1.45;;
10967;SDS011;5536;49.602;10.980;2023-06-19T13:20:08;1.50;;;1.40;;
10967;SDS011;5536;49.602;10.980;2023-06-19T13:22:35;1.50;;;1.40;;
10967;SDS011;5536;49.602;10.980;2023-06-19T13:25:04;6.28;;;1.70;;
10967;SDS011;5536;49.602;10.980;2023-06-19T13:27:31;1.23;;;1.20;;
10967;SDS011;5536;49.602;10.980;2023-06-19T13:29:59;1.58;;;1.48;;
10967;SDS011;5536;49.602;10.980;2023-06-19T13:32:27;2.05;;;1.45;;
10967;SDS011;5536;49.602;10.980;2023-06-19T13:34:54;1.30;;;1.20;;
10967;SDS011;5536;49.602;10.980;2023-06-19T13:37:21;2.20;;;2.00;;
10967;SDS011;5536;49.602;10.980;2023-06-19T13:39:48;1.67;;;1.58;;
10967;SDS011;5536;49.602;10.980;2023-06-19T13:42:17;1.10;;;1.10;;
10967;SDS011;5536;49.602;10.980;2023-06-19T13:44:44;2.00;;;1.85;;
10967;SDS011;5536;49.602;10.980;2023-06-19T13:47:11;1.65;;;1.55;;
10967;SDS011;5536;49.602;10.980;2023-06-19T13:49:38;3.22;;;2.97;;
10967;SDS011;5536;49.602;10.980;2023-06-19T13:52:06;1.60;;;1.50;;
10967;SDS011;5536;49.602;10.980;2023-06-19T13:54:33;1.67;;;1.58;;
10967;SDS011;5536;49.602;10.980;2023-06-19T13:57:00;1.60;;;1.50;;
10967;SDS011;5536;49.602;10.980;2023-06-19T13:59:28;2.00;;;1.67;;
10967;SDS011;5536;49.602;10.980;2023-06-19T14:01:55;1.90;;;1.80;;
10967;SDS011;5536;49.602;10.980;2023-06-19T14:04:22;1.67;;;1.58;;
10967;SDS011;5536;49.602;10.980;2023-06-19T14:06:49;1.70;;;1.60;;
10967;SDS011;5536;49.602;10.980;2023-06-19T14:09:16;1.50;;;1.40;;
10967;SDS011;5536;49.602;10.980;2023-06-19T14:11:43;9.20;;;1.80;;
10967;SDS011;5536;49.602;10.980;2023-06-19T14:14:11;1.75;;;1.65;;
10967;SDS011;5536;49.602;10.980;2023-06-19T14:16:39;1.40;;;1.30;;
10967;SDS011;5536;49.602;10.980;2023-06-19T14:19:06;1.80;;;1.70;;
10967;SDS011;5536;49.602;10.980;2023-06-19T14:21:33;1.17;;;1.17;;
10967;SDS011;5536;49.602;10.980;2023-06-19T14:24:00;3.88;;;1.55;;
10967;SDS011;5536;49.602;10.980;2023-06-19T14:26:27;2.05;;;1.52;;
10967;SDS011;5536;49.602;10.980;2023-06-19T14:28:54;2.03;;;1.83;;
10967;SDS011;5536;49.602;10.980;2023-06-19T14:31:22;1.65;;;1.55;;
10967;SDS011;5536;49.602;10.980;2023-06-19T14:33:51;1.80;;;1.70;;
10967;SDS011;5536;49.602;10.980;2023-06-19T14:36:18;1.50;;;1.40;;
10967;SDS011;5536;49.602;10.980;2023-06-19T14:38:45;1.80;;;1.70;;
10967;SDS011;5536;49.602;10.980;2023-06-19T14:41:12;1.40;;;1.33;;
10967;SDS011;5536;49.602;10.980;2023-06-19T14:43:39;1.85;;;1.67;;
10967;SDS011;5536;49.602;10.980;2023-06-19T14:46:07;1.77;;;1.67;;
10967;SDS011;5536;49.602;10.980;2023-06-19T14:48:34;2.38;;;1.90;;
10967;SDS011;5536;49.602;10.980;2023-06-19T14:51:03;2.80;;;2.03;;
10967;SDS011;5536;49.602;10.980;2023-06-19T14:53:30;1.65;;;1.55;;